Terminal Aerodrome Forecast
Issued by NWS

Home | Current Version | Previous Version | Text Only | Print | Product List | Glossary On
Versions: 1 2 3 4 5 6 7 8 9 10 11 12 13
000
FTUS42 TJSJ 020010 RRA
TAFKPK
TAF
TKPK 020010Z 0200/0224 07008KT P6SM VCSH FEW018 BKN050 BKN120
      TEMPO 0200/0202 VRB12G19KT 5SM -SHRA BKN018
     FM020230 05008KT P6SM -RA SCT018 SCT050 SCT120
     FM021230 07011KT P6SM FEW022
      AMD NOT SKED 0202/0211=

USA.gov is the U.S. government's official web portal to all federal, state and local government web resources and services.